sensor_id;sensor_type;location;lat;lon;timestamp;temperature;humidity
45319;DHT22;31057;48.498;32.260;2022-10-19T00:00:09;6.30;99.90
45319;DHT22;31057;48.498;32.260;2022-10-19T00:02:11;6.30;99.90
45319;DHT22;31057;48.498;32.260;2022-10-19T00:04:13;6.40;99.90
45319;DHT22;31057;48.498;32.260;2022-10-19T00:06:21;6.30;99.90
45319;DHT22;31057;48.498;32.260;2022-10-19T00:08:26;6.40;99.90
45319;DHT22;31057;48.498;32.260;2022-10-19T00:10:28;6.40;99.90
45319;DHT22;31057;48.498;32.260;2022-10-19T00:12:30;6.40;99.90
45319;DHT22;31057;48.498;32.260;2022-10-19T00:14:32;6.40;99.90
45319;DHT22;31057;48.498;32.260;2022-10-19T00:16:37;6.40;99.90
45319;DHT22;31057;48.498;32.260;2022-10-19T00:18:39;6.40;99.90
45319;DHT22;31057;48.498;32.260;2022-10-19T00:20:43;6.40;99.90
45319;DHT22;31057;48.498;32.260;2022-10-19T00:22:49;6.40;99.90
45319;DHT22;31057;48.498;32.260;2022-10-19T00:24:51;6.40;99.90
45319;DHT22;31057;48.498;32.260;2022-10-19T00:26:53;6.50;99.90
45319;DHT22;31057;48.498;32.260;2022-10-19T00:28:56;6.50;99.90
45319;DHT22;31057;48.498;32.260;2022-10-19T00:31:10;6.50;99.90
45319;DHT22;31057;48.498;32.260;2022-10-19T00:33:12;6.40;99.90
45319;DHT22;31057;48.498;32.260;2022-10-19T00:35:14;6.40;99.90
45319;DHT22;31057;48.498;32.260;2022-10-19T00:37:16;6.40;99.90
45319;DHT22;31057;48.498;32.260;2022-10-19T00:39:18;6.50;99.90
45319;DHT22;31057;48.498;32.260;2022-10-19T00:41:21;6.50;99.90
45319;DHT22;31057;48.498;32.260;2022-10-19T00:43:25;6.60;99.90
45319;DHT22;31057;48.498;32.260;2022-10-19T00:45:27;6.60;99.90
45319;DHT22;31057;48.498;32.260;2022-10-19T00:47:30;6.50;99.90
45319;DHT22;31057;48.498;32.260;2022-10-19T00:49:40;6.70;99.90
45319;DHT22;31057;48.498;32.260;2022-10-19T00:51:54;6.60;99.90
45319;DHT22;31057;48.498;32.260;2022-10-19T00:53:57;6.70;99.90
45319;DHT22;31057;48.498;32.260;2022-10-19T00:56:05;6.60;99.90
45319;DHT22;31057;48.498;32.260;2022-10-19T00:58:08;6.60;99.90
45319;DHT22;31057;48.498;32.260;2022-10-19T01:00:12;6.60;99.90
45319;DHT22;31057;48.498;32.260;2022-10-19T01:02:14;6.80;99.90
45319;DHT22;31057;48.498;32.260;2022-10-19T01:04:16;6.80;99.90
45319;DHT22;31057;48.498;32.260;2022-10-19T01:06:19;6.80;99.90
45319;DHT22;31057;48.498;32.260;2022-10-19T01:08:21;7.00;99.90
45319;DHT22;31057;48.498;32.260;2022-10-19T01:13:05;7.50;99.90
45319;DHT22;31057;48.498;32.260;2022-10-19T01:15:21;7.30;99.90
45319;DHT22;31057;48.498;32.260;2022-10-19T01:32:18;7.80;99.90
45319;DHT22;31057;48.498;32.260;2022-10-19T01:34:43;7.90;99.90
45319;DHT22;31057;48.498;32.260;2022-10-19T01:37:05;7.90;99.90
45319;DHT22;31057;48.498;32.260;2022-10-19T01:39:21;7.80;99.90
45319;DHT22;31057;48.498;32.260;2022-10-19T01:41:30;7.80;99.90
45319;DHT22;31057;48.498;32.260;2022-10-19T01:43:53;7.80;99.90
45319;DHT22;31057;48.498;32.260;2022-10-19T01:46:08;7.90;99.90
45319;DHT22;31057;48.498;32.260;2022-10-19T01:48:25;7.90;99.90
45319;DHT22;31057;48.498;32.260;2022-10-19T01:52:38;8.10;99.90
45319;DHT22;31057;48.498;32.260;2022-10-19T01:54:46;8.30;99.90
45319;DHT22;31057;48.498;32.260;2022-10-19T01:56:49;8.20;99.90
45319;DHT22;31057;48.498;32.260;2022-10-19T01:58:55;8.20;99.90
45319;DHT22;31057;48.498;32.260;2022-10-19T02:01:02;8.10;99.90
45319;DHT22;31057;48.498;32.260;2022-10-19T02:03:05;8.10;99.90
45319;DHT22;31057;48.498;32.260;2022-10-19T02:05:08;8.10;99.90
45319;DHT22;31057;48.498;32.260;2022-10-19T02:07:11;8.00;99.90
45319;DHT22;31057;48.498;32.260;2022-10-19T02:09:14;8.00;99.90
45319;DHT22;31057;48.498;32.260;2022-10-19T02:11:20;7.90;99.90
45319;DHT22;31057;48.498;32.260;2022-10-19T02:13:23;8.00;99.90
45319;DHT22;31057;48.498;32.260;2022-10-19T02:15:28;8.00;99.90
45319;DHT22;31057;48.498;32.260;2022-10-19T02:17:35;8.00;99.90
45319;DHT22;31057;48.498;32.260;2022-10-19T02:19:38;7.90;99.90
45319;DHT22;31057;48.498;32.260;2022-10-19T02:21:40;7.80;99.90
45319;DHT22;31057;48.498;32.260;2022-10-19T02:23:42;7.70;99.90
45319;DHT22;31057;48.498;32.260;2022-10-19T02:25:44;7.70;99.90
45319;DHT22;31057;48.498;32.260;2022-10-19T02:27:47;7.60;99.90
45319;DHT22;31057;48.498;32.260;2022-10-19T02:29:48;7.50;99.90
45319;DHT22;31057;48.498;32.260;2022-10-19T02:31:50;7.40;99.90
45319;DHT22;31057;48.498;32.260;2022-10-19T02:33:53;7.30;99.90
45319;DHT22;31057;48.498;32.260;2022-10-19T02:35:55;7.40;99.90
45319;DHT22;31057;48.498;32.260;2022-10-19T02:37:59;7.40;99.90
45319;DHT22;31057;48.498;32.260;2022-10-19T02:40:02;7.30;99.90
45319;DHT22;31057;48.498;32.260;2022-10-19T02:42:21;7.20;99.90
45319;DHT22;31057;48.498;32.260;2022-10-19T02:47:01;7.20;99.90
45319;DHT22;31057;48.498;32.260;2022-10-19T02:49:06;7.10;99.90
45319;DHT22;31057;48.498;32.260;2022-10-19T02:51:38;7.10;99.90
45319;DHT22;31057;48.498;32.260;2022-10-19T02:53:40;7.10;99.90
45319;DHT22;31057;48.498;32.260;2022-10-19T02:55:42;7.10;99.90
45319;DHT22;31057;48.498;32.260;2022-10-19T02:57:44;7.10;99.90
45319;DHT22;31057;48.498;32.260;2022-10-19T02:59:46;7.10;99.90
45319;DHT22;31057;48.498;32.260;2022-10-19T03:01:48;7.00;99.90
45319;DHT22;31057;48.498;32.260;2022-10-19T03:03:50;6.90;99.90
45319;DHT22;31057;48.498;32.260;2022-10-19T03:05:54;6.80;99.90
45319;DHT22;31057;48.498;32.260;2022-10-19T03:07:56;6.80;99.90
45319;DHT22;31057;48.498;32.260;2022-10-19T03:10:00;6.80;99.90
45319;DHT22;31057;48.498;32.260;2022-10-19T03:12:02;6.90;99.90
45319;DHT22;31057;48.498;32.260;2022-10-19T03:14:04;6.80;99.90
45319;DHT22;31057;48.498;32.260;2022-10-19T03:16:10;6.80;99.90
45319;DHT22;31057;48.498;32.260;2022-10-19T03:18:12;6.90;99.90
45319;DHT22;31057;48.498;32.260;2022-10-19T03:20:14;6.90;99.90
45319;DHT22;31057;48.498;32.260;2022-10-19T03:22:16;6.80;99.90
45319;DHT22;31057;48.498;32.260;2022-10-19T03:24:18;6.80;99.90
45319;DHT22;31057;48.498;32.260;2022-10-19T03:26:20;6.70;99.90
45319;DHT22;31057;48.498;32.260;2022-10-19T03:28:22;6.60;99.90
45319;DHT22;31057;48.498;32.260;2022-10-19T03:30:24;6.70;99.90
45319;DHT22;31057;48.498;32.260;2022-10-19T03:32:26;6.70;99.90
45319;DHT22;31057;48.498;32.260;2022-10-19T03:34:27;6.60;99.90
45319;DHT22;31057;48.498;32.260;2022-10-19T03:36:35;6.60;99.90
45319;DHT22;31057;48.498;32.260;2022-10-19T03:38:37;6.80;99.90
45319;DHT22;31057;48.498;32.260;2022-10-19T03:40:39;6.80;99.90
45319;DHT22;31057;48.498;32.260;2022-10-19T03:42:41;6.80;99.90
45319;DHT22;31057;48.498;32.260;2022-10-19T03:44:42;6.80;99.90
45319;DHT22;31057;48.498;32.260;2022-10-19T03:46:44;6.70;99.90
45319;DHT22;31057;48.498;32.260;2022-10-19T03:48:46;6.70;99.90
45319;DHT22;31057;48.498;32.260;2022-10-19T03:51:01;6.70;99.90
45319;DHT22;31057;48.498;32.260;2022-10-19T03:53:03;6.60;99.90
45319;DHT22;31057;48.498;32.260;2022-10-19T03:55:05;6.60;99.90
45319;DHT22;31057;48.498;32.260;2022-10-19T03:57:07;6.60;99.90
45319;DHT22;31057;48.498;32.260;2022-10-19T03:59:12;6.50;99.90
45319;DHT22;31057;48.498;32.260;2022-10-19T04:01:20;6.50;99.90
45319;DHT22;31057;48.498;32.260;2022-10-19T04:03:22;6.50;99.90
45319;DHT22;31057;48.498;32.260;2022-10-19T04:05:24;6.40;99.90
45319;DHT22;31057;48.498;32.260;2022-10-19T04:07:26;6.40;99.90
45319;DHT22;31057;48.498;32.260;2022-10-19T04:09:28;6.40;99.90
45319;DHT22;31057;48.498;32.260;2022-10-19T04:11:30;6.30;99.90
45319;DHT22;31057;48.498;32.260;2022-10-19T04:13:33;6.30;99.90
45319;DHT22;31057;48.498;32.260;2022-10-19T04:15:35;6.20;99.90
45319;DHT22;31057;48.498;32.260;2022-10-19T04:17:37;6.10;99.90
45319;DHT22;31057;48.498;32.260;2022-10-19T04:19:39;6.10;99.90
45319;DHT22;31057;48.498;32.260;2022-10-19T04:21:42;6.10;99.90
45319;DHT22;31057;48.498;32.260;2022-10-19T04:23:44;6.10;99.90
45319;DHT22;31057;48.498;32.260;2022-10-19T04:25:46;6.20;99.90
45319;DHT22;31057;48.498;32.260;2022-10-19T04:27:48;6.20;99.90
45319;DHT22;31057;48.498;32.260;2022-10-19T04:29:50;6.20;99.90
45319;DHT22;31057;48.498;32.260;2022-10-19T04:31:52;6.30;99.90
45319;DHT22;31057;48.498;32.260;2022-10-19T04:33:55;6.40;99.90
45319;DHT22;31057;48.498;32.260;2022-10-19T04:35:58;6.40;99.90
45319;DHT22;31057;48.498;32.260;2022-10-19T04:38:00;6.40;99.90
45319;DHT22;31057;48.498;32.260;2022-10-19T04:40:02;6.50;99.90
45319;DHT22;31057;48.498;32.260;2022-10-19T04:42:06;6.50;99.90
45319;DHT22;31057;48.498;32.260;2022-10-19T04:44:08;6.40;99.90
45319;DHT22;31057;48.498;32.260;2022-10-19T04:46:15;6.50;99.90
45319;DHT22;31057;48.498;32.260;2022-10-19T04:48:18;6.70;99.90
45319;DHT22;31057;48.498;32.260;2022-10-19T04:50:20;6.90;99.90
45319;DHT22;31057;48.498;32.260;2022-10-19T04:52:22;7.00;99.90
45319;DHT22;31057;48.498;32.260;2022-10-19T04:54:23;7.20;99.90
45319;DHT22;31057;48.498;32.260;2022-10-19T04:56:26;7.30;99.90
45319;DHT22;31057;48.498;32.260;2022-10-19T04:58:28;7.30;99.90
45319;DHT22;31057;48.498;32.260;2022-10-19T05:00:30;7.30;99.90
45319;DHT22;31057;48.498;32.260;2022-10-19T05:02:32;7.40;99.90
45319;DHT22;31057;48.498;32.260;2022-10-19T05:04:34;7.50;99.90
45319;DHT22;31057;48.498;32.260;2022-10-19T05:06:36;7.70;99.90
45319;DHT22;31057;48.498;32.260;2022-10-19T05:08:38;7.70;99.90
45319;DHT22;31057;48.498;32.260;2022-10-19T05:10:40;7.70;99.90
45319;DHT22;31057;48.498;32.260;2022-10-19T05:12:48;7.70;99.90
45319;DHT22;31057;48.498;32.260;2022-10-19T05:14:50;7.80;99.90
45319;DHT22;31057;48.498;32.260;2022-10-19T05:16:51;7.90;99.90
45319;DHT22;31057;48.498;32.260;2022-10-19T05:18:55;8.00;99.90
45319;DHT22;31057;48.498;32.260;2022-10-19T05:21:04;8.10;99.90
45319;DHT22;31057;48.498;32.260;2022-10-19T05:23:06;8.10;99.90
45319;DHT22;31057;48.498;32.260;2022-10-19T05:25:08;8.20;99.90
45319;DHT22;31057;48.498;32.260;2022-10-19T05:27:10;8.40;99.90
45319;DHT22;31057;48.498;32.260;2022-10-19T05:29:12;8.60;99.90
45319;DHT22;31057;48.498;32.260;2022-10-19T05:31:17;8.60;99.90
45319;DHT22;31057;48.498;32.260;2022-10-19T05:33:19;8.60;99.90
45319;DHT22;31057;48.498;32.260;2022-10-19T05:35:23;8.70;99.90
45319;DHT22;31057;48.498;32.260;2022-10-19T05:37:25;8.80;99.90
45319;DHT22;31057;48.498;32.260;2022-10-19T05:39:27;8.80;99.90
45319;DHT22;31057;48.498;32.260;2022-10-19T05:41:30;8.90;99.90
45319;DHT22;31057;48.498;32.260;2022-10-19T05:43:33;8.90;99.90
45319;DHT22;31057;48.498;32.260;2022-10-19T05:45:34;9.00;99.90
45319;DHT22;31057;48.498;32.260;2022-10-19T05:47:36;9.10;99.90
45319;DHT22;31057;48.498;32.260;2022-10-19T05:49:38;9.30;99.90
45319;DHT22;31057;48.498;32.260;2022-10-19T05:51:42;9.40;99.90
45319;DHT22;31057;48.498;32.260;2022-10-19T05:53:45;9.40;99.90
45319;DHT22;31057;48.498;32.260;2022-10-19T05:55:47;9.50;99.90
45319;DHT22;31057;48.498;32.260;2022-10-19T05:57:49;9.60;99.90
45319;DHT22;31057;48.498;32.260;2022-10-19T05:59:51;9.70;99.90
45319;DHT22;31057;48.498;32.260;2022-10-19T06:01:52;9.70;99.90
45319;DHT22;31057;48.498;32.260;2022-10-19T06:03:55;9.80;99.90
45319;DHT22;31057;48.498;32.260;2022-10-19T06:05:57;9.90;99.90
45319;DHT22;31057;48.498;32.260;2022-10-19T06:08:02;9.90;99.90
45319;DHT22;31057;48.498;32.260;2022-10-19T06:10:05;10.10;99.90
45319;DHT22;31057;48.498;32.260;2022-10-19T06:12:07;10.30;99.90
45319;DHT22;31057;48.498;32.260;2022-10-19T06:14:14;10.40;99.90
45319;DHT22;31057;48.498;32.260;2022-10-19T06:16:18;10.40;99.90
45319;DHT22;31057;48.498;32.260;2022-10-19T06:18:20;10.40;99.90
45319;DHT22;31057;48.498;32.260;2022-10-19T06:20:26;10.40;99.90
45319;DHT22;31057;48.498;32.260;2022-10-19T06:22:29;10.40;99.90
45319;DHT22;31057;48.498;32.260;2022-10-19T06:24:31;10.40;99.90
45319;DHT22;31057;48.498;32.260;2022-10-19T06:26:33;10.50;99.90
45319;DHT22;31057;48.498;32.260;2022-10-19T06:28:37;10.60;99.90
45319;DHT22;31057;48.498;32.260;2022-10-19T06:30:40;10.70;99.90
45319;DHT22;31057;48.498;32.260;2022-10-19T06:32:42;10.80;99.90
45319;DHT22;31057;48.498;32.260;2022-10-19T06:34:44;10.90;99.90
45319;DHT22;31057;48.498;32.260;2022-10-19T06:36:46;11.00;99.90
45319;DHT22;31057;48.498;32.260;2022-10-19T06:38:48;10.90;99.90
45319;DHT22;31057;48.498;32.260;2022-10-19T06:40:50;10.90;99.90
45319;DHT22;31057;48.498;32.260;2022-10-19T06:42:54;11.00;99.90
45319;DHT22;31057;48.498;32.260;2022-10-19T06:44:56;11.10;99.90
45319;DHT22;31057;48.498;32.260;2022-10-19T06:46:58;11.00;99.90
45319;DHT22;31057;48.498;32.260;2022-10-19T06:49:01;11.20;99.90
45319;DHT22;31057;48.498;32.260;2022-10-19T06:51:05;11.20;99.90
45319;DHT22;31057;48.498;32.260;2022-10-19T06:53:08;11.20;99.90
45319;DHT22;31057;48.498;32.260;2022-10-19T06:55:10;11.30;99.90
45319;DHT22;31057;48.498;32.260;2022-10-19T06:57:11;11.30;99.90
45319;DHT22;31057;48.498;32.260;2022-10-19T06:59:13;11.30;99.90
45319;DHT22;31057;48.498;32.260;2022-10-19T07:01:15;11.50;99.90
45319;DHT22;31057;48.498;32.260;2022-10-19T07:03:17;11.60;99.90
45319;DHT22;31057;48.498;32.260;2022-10-19T07:05:19;11.70;99.90
45319;DHT22;31057;48.498;32.260;2022-10-19T07:07:21;11.70;99.90
45319;DHT22;31057;48.498;32.260;2022-10-19T07:09:23;11.80;99.90
45319;DHT22;31057;48.498;32.260;2022-10-19T07:11:25;12.00;99.90
45319;DHT22;31057;48.498;32.260;2022-10-19T07:13:27;11.90;99.90
45319;DHT22;31057;48.498;32.260;2022-10-19T07:15:29;11.90;99.90
45319;DHT22;31057;48.498;32.260;2022-10-19T07:17:31;11.90;99.90
45319;DHT22;31057;48.498;32.260;2022-10-19T07:19:33;12.00;99.90
45319;DHT22;31057;48.498;32.260;2022-10-19T07:21:35;12.00;99.90
45319;DHT22;31057;48.498;32.260;2022-10-19T07:23:43;12.00;99.90
45319;DHT22;31057;48.498;32.260;2022-10-19T07:25:45;12.10;99.90
45319;DHT22;31057;48.498;32.260;2022-10-19T07:27:47;12.30;99.90
45319;DHT22;31057;48.498;32.260;2022-10-19T07:29:49;12.40;99.90
45319;DHT22;31057;48.498;32.260;2022-10-19T07:31:51;12.40;99.90
45319;DHT22;31057;48.498;32.260;2022-10-19T07:33:59;12.30;99.90
45319;DHT22;31057;48.498;32.260;2022-10-19T07:36:02;12.50;99.90
45319;DHT22;31057;48.498;32.260;2022-10-19T07:38:04;12.70;99.90
45319;DHT22;31057;48.498;32.260;2022-10-19T07:40:07;12.80;99.90
45319;DHT22;31057;48.498;32.260;2022-10-19T07:42:09;13.00;99.90
45319;DHT22;31057;48.498;32.260;2022-10-19T07:44:11;13.00;99.90
45319;DHT22;31057;48.498;32.260;2022-10-19T07:46:21;12.90;99.90
45319;DHT22;31057;48.498;32.260;2022-10-19T07:48:24;13.20;99.90
45319;DHT22;31057;48.498;32.260;2022-10-19T07:50:26;13.10;99.90
45319;DHT22;31057;48.498;32.260;2022-10-19T07:52:28;13.30;99.90
45319;DHT22;31057;48.498;32.260;2022-10-19T07:54:35;13.40;99.90
45319;DHT22;31057;48.498;32.260;2022-10-19T07:56:36;13.30;99.90
45319;DHT22;31057;48.498;32.260;2022-10-19T07:58:39;13.10;99.90
45319;DHT22;31057;48.498;32.260;2022-10-19T08:00:40;13.40;99.90
45319;DHT22;31057;48.498;32.260;2022-10-19T08:02:43;13.70;99.90
45319;DHT22;31057;48.498;32.260;2022-10-19T08:05:05;13.50;99.90
45319;DHT22;31057;48.498;32.260;2022-10-19T08:07:11;13.60;99.90
45319;DHT22;31057;48.498;32.260;2022-10-19T08:09:14;13.50;99.90
45319;DHT22;31057;48.498;32.260;2022-10-19T08:11:34;13.60;99.90
45319;DHT22;31057;48.498;32.260;2022-10-19T08:13:37;13.60;99.90
45319;DHT22;31057;48.498;32.260;2022-10-19T08:15:39;13.80;99.90
45319;DHT22;31057;48.498;32.260;2022-10-19T08:17:41;13.80;99.90
45319;DHT22;31057;48.498;32.260;2022-10-19T08:19:44;13.90;99.90
45319;DHT22;31057;48.498;32.260;2022-10-19T08:21:48;13.90;99.90
45319;DHT22;31057;48.498;32.260;2022-10-19T08:23:49;14.40;99.90
45319;DHT22;31057;48.498;32.260;2022-10-19T08:25:56;14.20;99.90
45319;DHT22;31057;48.498;32.260;2022-10-19T08:27:59;14.40;99.90
45319;DHT22;31057;48.498;32.260;2022-10-19T08:30:01;14.10;99.90
45319;DHT22;31057;48.498;32.260;2022-10-19T08:32:03;14.30;99.90
45319;DHT22;31057;48.498;32.260;2022-10-19T08:34:05;14.30;99.90
45319;DHT22;31057;48.498;32.260;2022-10-19T08:36:08;14.40;99.90
45319;DHT22;31057;48.498;32.260;2022-10-19T08:38:10;14.50;99.90
45319;DHT22;31057;48.498;32.260;2022-10-19T08:40:23;14.20;99.90
45319;DHT22;31057;48.498;32.260;2022-10-19T08:42:46;14.10;99.90
45319;DHT22;31057;48.498;32.260;2022-10-19T08:47:21;14.50;99.90
45319;DHT22;31057;48.498;32.260;2022-10-19T08:49:31;14.50;99.90
45319;DHT22;31057;48.498;32.260;2022-10-19T08:51:37;14.60;99.90
45319;DHT22;31057;48.498;32.260;2022-10-19T08:53:56;14.90;99.90
45319;DHT22;31057;48.498;32.260;2022-10-19T08:56:17;15.10;99.90
45319;DHT22;31057;48.498;32.260;2022-10-19T09:05:52;15.00;99.90
45319;DHT22;31057;48.498;32.260;2022-10-19T09:07:58;15.30;99.90
45319;DHT22;31057;48.498;32.260;2022-10-19T09:10:08;15.00;99.90
45319;DHT22;31057;48.498;32.260;2022-10-19T09:12:30;15.00;99.90
45319;DHT22;31057;48.498;32.260;2022-10-19T09:14:46;15.20;99.90
45319;DHT22;31057;48.498;32.260;2022-10-19T09:16:54;15.70;99.90
45319;DHT22;31057;48.498;32.260;2022-10-19T09:18:59;15.50;99.90
45319;DHT22;31057;48.498;32.260;2022-10-19T09:21:16;15.50;99.90
45319;DHT22;31057;48.498;32.260;2022-10-19T09:23:21;15.80;99.90
45319;DHT22;31057;48.498;32.260;2022-10-19T09:25:28;16.00;99.90
45319;DHT22;31057;48.498;32.260;2022-10-19T09:27:38;15.80;99.90
45319;DHT22;31057;48.498;32.260;2022-10-19T09:29:44;15.70;99.90
45319;DHT22;31057;48.498;32.260;2022-10-19T09:31:53;15.60;99.90
45319;DHT22;31057;48.498;32.260;2022-10-19T09:34:00;15.50;99.90
45319;DHT22;31057;48.498;32.260;2022-10-19T09:36:05;15.50;99.90
45319;DHT22;31057;48.498;32.260;2022-10-19T09:38:13;15.50;99.90
45319;DHT22;31057;48.498;32.260;2022-10-19T09:40:25;15.80;99.90
45319;DHT22;31057;48.498;32.260;2022-10-19T09:42:29;15.70;99.90
45319;DHT22;31057;48.498;32.260;2022-10-19T09:44:34;15.20;99.90
45319;DHT22;31057;48.498;32.260;2022-10-19T09:46:46;15.30;99.90
45319;DHT22;31057;48.498;32.260;2022-10-19T09:48:53;15.40;99.90
45319;DHT22;31057;48.498;32.260;2022-10-19T09:50:58;15.40;99.90
45319;DHT22;31057;48.498;32.260;2022-10-19T09:53:04;15.40;99.90
45319;DHT22;31057;48.498;32.260;2022-10-19T09:59:22;15.60;99.90
45319;DHT22;31057;48.498;32.260;2022-10-19T10:01:33;15.70;99.90
45319;DHT22;31057;48.498;32.260;2022-10-19T10:03:42;15.70;99.90
45319;DHT22;31057;48.498;32.260;2022-10-19T10:05:45;15.40;99.90
45319;DHT22;31057;48.498;32.260;2022-10-19T10:07:55;15.50;99.90
45319;DHT22;31057;48.498;32.260;2022-10-19T10:09:57;15.40;99.90
45319;DHT22;31057;48.498;32.260;2022-10-19T10:12:00;15.20;99.90
45319;DHT22;31057;48.498;32.260;2022-10-19T10:14:15;15.00;99.90
45319;DHT22;31057;48.498;32.260;2022-10-19T10:16:21;15.10;99.90
45319;DHT22;31057;48.498;32.260;2022-10-19T10:18:24;15.20;99.90
45319;DHT22;31057;48.498;32.260;2022-10-19T10:20:29;15.30;99.90
45319;DHT22;31057;48.498;32.260;2022-10-19T10:22:35;15.60;99.90
45319;DHT22;31057;48.498;32.260;2022-10-19T10:24:50;15.80;99.90
45319;DHT22;31057;48.498;32.260;2022-10-19T10:27:02;15.60;99.90
45319;DHT22;31057;48.498;32.260;2022-10-19T10:29:31;15.50;99.90
45319;DHT22;31057;48.498;32.260;2022-10-19T10:31:34;15.60;99.90
45319;DHT22;31057;48.498;32.260;2022-10-19T10:33:37;15.70;99.90
45319;DHT22;31057;48.498;32.260;2022-10-19T10:35:47;15.50;99.90
45319;DHT22;31057;48.498;32.260;2022-10-19T10:38:16;15.60;99.90
45319;DHT22;31057;48.498;32.260;2022-10-19T10:40:29;15.60;99.90
45319;DHT22;31057;48.498;32.260;2022-10-19T10:42:51;15.60;99.90
45319;DHT22;31057;48.498;32.260;2022-10-19T10:44:54;15.70;99.90
45319;DHT22;31057;48.498;32.260;2022-10-19T10:47:02;15.80;99.90
45319;DHT22;31057;48.498;32.260;2022-10-19T10:49:14;15.60;99.90
45319;DHT22;31057;48.498;32.260;2022-10-19T10:54:26;16.10;99.90
45319;DHT22;31057;48.498;32.260;2022-10-19T10:56:29;16.20;99.90
45319;DHT22;31057;48.498;32.260;2022-10-19T10:58:54;16.00;99.90
45319;DHT22;31057;48.498;32.260;2022-10-19T11:00:57;16.10;99.90
45319;DHT22;31057;48.498;32.260;2022-10-19T11:03:24;16.20;99.90
45319;DHT22;31057;48.498;32.260;2022-10-19T11:07:35;15.90;99.90
45319;DHT22;31057;48.498;32.260;2022-10-19T11:09:42;16.00;99.90
45319;DHT22;31057;48.498;32.260;2022-10-19T11:11:46;16.20;99.90
45319;DHT22;31057;48.498;32.260;2022-10-19T11:13:59;16.30;99.90
45319;DHT22;31057;48.498;32.260;2022-10-19T11:16:13;16.40;99.90
45319;DHT22;31057;48.498;32.260;2022-10-19T11:19:07;16.30;99.90
45319;DHT22;31057;48.498;32.260;2022-10-19T11:20:53;16.10;99.90
45319;DHT22;31057;48.498;32.260;2022-10-19T11:23:15;15.90;99.90
45319;DHT22;31057;48.498;32.260;2022-10-19T11:45:00;13.60;99.90
45319;DHT22;31057;48.498;32.260;2022-10-19T11:47:15;13.50;99.90
45319;DHT22;31057;48.498;32.260;2022-10-19T11:51:51;13.30;99.90
45319;DHT22;31057;48.498;32.260;2022-10-19T11:56:08;13.20;99.90
45319;DHT22;31057;48.498;32.260;2022-10-19T11:58:33;13.20;99.90
45319;DHT22;31057;48.498;32.260;2022-10-19T12:01:02;13.20;99.90
45319;DHT22;31057;48.498;32.260;2022-10-19T12:13:13;12.50;99.90
45319;DHT22;31057;48.498;32.260;2022-10-19T12:15:21;12.60;99.90
45319;DHT22;31057;48.498;32.260;2022-10-19T12:17:30;12.50;99.90
45319;DHT22;31057;48.498;32.260;2022-10-19T12:19:38;12.60;99.90
45319;DHT22;31057;48.498;32.260;2022-10-19T12:21:42;12.60;99.90
45319;DHT22;31057;48.498;32.260;2022-10-19T12:23:45;12.60;99.90
45319;DHT22;31057;48.498;32.260;2022-10-19T12:25:49;12.60;99.90
45319;DHT22;31057;48.498;32.260;2022-10-19T12:27:51;12.50;99.90
45319;DHT22;31057;48.498;32.260;2022-10-19T12:29:54;12.60;99.90
45319;DHT22;31057;48.498;32.260;2022-10-19T12:32:00;12.60;99.90
45319;DHT22;31057;48.498;32.260;2022-10-19T12:38:41;12.40;99.90
45319;DHT22;31057;48.498;32.260;2022-10-19T12:41:00;12.50;99.90
45319;DHT22;31057;48.498;32.260;2022-10-19T12:43:21;12.40;99.90
45319;DHT22;31057;48.498;32.260;2022-10-19T12:45:26;12.30;99.90
45319;DHT22;31057;48.498;32.260;2022-10-19T12:47:31;12.20;99.90
45319;DHT22;31057;48.498;32.260;2022-10-19T12:49:35;12.10;99.90
45319;DHT22;31057;48.498;32.260;2022-10-19T12:51:45;12.00;99.90
45319;DHT22;31057;48.498;32.260;2022-10-19T12:53:47;11.90;99.90
45319;DHT22;31057;48.498;32.260;2022-10-19T12:58:20;12.00;99.90
45319;DHT22;31057;48.498;32.260;2022-10-19T13:00:26;12.00;99.90
45319;DHT22;31057;48.498;32.260;2022-10-19T13:02:32;12.00;99.90
45319;DHT22;31057;48.498;32.260;2022-10-19T13:04:36;11.80;99.90
45319;DHT22;31057;48.498;32.260;2022-10-19T13:06:50;11.70;99.90
45319;DHT22;31057;48.498;32.260;2022-10-19T13:09:04;11.60;99.90
45319;DHT22;31057;48.498;32.260;2022-10-19T13:11:09;11.60;99.90
45319;DHT22;31057;48.498;32.260;2022-10-19T13:15:54;11.50;99.90
45319;DHT22;31057;48.498;32.260;2022-10-19T13:17:56;11.50;99.90
45319;DHT22;31057;48.498;32.260;2022-10-19T13:22:28;11.50;99.90
45319;DHT22;31057;48.498;32.260;2022-10-19T13:24:35;11.50;99.90
45319;DHT22;31057;48.498;32.260;2022-10-19T13:26:37;11.50;99.90
45319;DHT22;31057;48.498;32.260;2022-10-19T13:28:51;11.40;99.90
45319;DHT22;31057;48.498;32.260;2022-10-19T13:30:58;11.40;99.90
45319;DHT22;31057;48.498;32.260;2022-10-19T13:35:32;11.30;99.90
45319;DHT22;31057;48.498;32.260;2022-10-19T13:37:34;11.40;99.90
45319;DHT22;31057;48.498;32.260;2022-10-19T13:39:38;11.40;99.90
45319;DHT22;31057;48.498;32.260;2022-10-19T13:41:46;11.30;99.90
45319;DHT22;31057;48.498;32.260;2022-10-19T13:48:23;11.40;99.90
45319;DHT22;31057;48.498;32.260;2022-10-19T13:50:33;11.30;99.90
45319;DHT22;31057;48.498;32.260;2022-10-19T14:07:25;11.40;99.90
45319;DHT22;31057;48.498;32.260;2022-10-19T14:12:21;11.40;99.90
45319;DHT22;31057;48.498;32.260;2022-10-19T14:14:24;11.50;99.90
45319;DHT22;31057;48.498;32.260;2022-10-19T14:16:28;11.40;99.90
45319;DHT22;31057;48.498;32.260;2022-10-19T14:18:34;11.40;99.90
45319;DHT22;31057;48.498;32.260;2022-10-19T14:20:37;11.40;99.90
45319;DHT22;31057;48.498;32.260;2022-10-19T14:22:39;11.40;99.90
45319;DHT22;31057;48.498;32.260;2022-10-19T14:24:41;11.40;99.90
45319;DHT22;31057;48.498;32.260;2022-10-19T14:26:43;11.40;99.90
45319;DHT22;31057;48.498;32.260;2022-10-19T14:28:51;11.40;99.90
45319;DHT22;31057;48.498;32.260;2022-10-19T14:30:57;11.40;99.90
45319;DHT22;31057;48.498;32.260;2022-10-19T14:33:04;11.40;99.90
45319;DHT22;31057;48.498;32.260;2022-10-19T14:35:39;11.40;99.90
45319;DHT22;31057;48.498;32.260;2022-10-19T14:37:41;11.40;99.90
45319;DHT22;31057;48.498;32.260;2022-10-19T14:42:03;11.40;99.90
45319;DHT22;31057;48.498;32.260;2022-10-19T14:47:00;11.40;99.90
45319;DHT22;31057;48.498;32.260;2022-10-19T14:49:04;11.40;99.90
45319;DHT22;31057;48.498;32.260;2022-10-19T14:55:35;11.40;99.90
45319;DHT22;31057;48.498;32.260;2022-10-19T14:57:39;11.40;99.90
45319;DHT22;31057;48.498;32.260;2022-10-19T14:59:46;11.40;99.90
45319;DHT22;31057;48.498;32.260;2022-10-19T15:01:51;11.40;99.90
45319;DHT22;31057;48.498;32.260;2022-10-19T15:03:54;11.30;99.90
45319;DHT22;31057;48.498;32.260;2022-10-19T15:06:01;11.40;99.90
45319;DHT22;31057;48.498;32.260;2022-10-19T15:10:27;11.30;99.90